createdAt,value
2019-01-29T00:00:53.245Z,1.23
2019-01-29T00:03:27.862Z,2.10
2019-01-29T00:06:09.239Z,1.67
2019-01-29T00:08:43.429Z,1.67
2019-01-29T00:11:19.722Z,2.10
2019-01-29T00:13:55.343Z,2.17
2019-01-29T00:16:29.052Z,1.33
2019-01-29T00:19:02.923Z,1.33
2019-01-29T00:21:37.585Z,2.90
2019-01-29T00:24:11.826Z,1.57
2019-01-29T00:26:45.564Z,2.20
2019-01-29T00:29:19.401Z,2.37
2019-01-29T00:31:52.982Z,1.77
2019-01-29T00:34:26.793Z,4.20
2019-01-29T00:37:04.096Z,4.90
2019-01-29T00:39:38.186Z,3.30
2019-01-29T00:42:13.393Z,3.73
2019-01-29T00:44:47.525Z,2.23
2019-01-29T00:47:22.734Z,2.17
2019-01-29T00:49:56.983Z,3.17
2019-01-29T00:52:32.057Z,2.57
2019-01-29T00:55:09.755Z,1.97
2019-01-29T00:57:43.315Z,1.73
2019-01-29T01:00:23.570Z,2.13
2019-01-29T01:02:57.514Z,2.83
2019-01-29T01:05:31.142Z,1.20
2019-01-29T01:08:05.267Z,3.70
2019-01-29T01:10:39.604Z,1.97
2019-01-29T01:13:15.556Z,3.43
2019-01-29T01:15:49.263Z,2.27
2019-01-29T01:18:22.850Z,3.03
2019-01-29T01:20:56.851Z,2.63
2019-01-29T01:23:32.757Z,2.70
2019-01-29T01:26:11.401Z,3.13
2019-01-29T01:28:45.247Z,3.30
2019-01-29T01:31:19.779Z,2.23
2019-01-29T01:33:55.821Z,1.00
2019-01-29T01:36:30.003Z,2.17
2019-01-29T01:39:05.559Z,1.90
2019-01-29T01:41:39.625Z,2.40
2019-01-29T01:44:13.451Z,2.17
2019-01-29T01:46:47.858Z,4.37
2019-01-29T01:49:21.726Z,1.17
2019-01-29T01:51:55.641Z,2.67
2019-01-29T01:54:30.519Z,2.13
2019-01-29T01:57:07.058Z,9.90
2019-01-29T01:59:40.693Z,5.33
2019-01-29T02:02:17.548Z,1.47
2019-01-29T02:04:51.206Z,2.63
2019-01-29T02:07:25.105Z,2.73
2019-01-29T02:09:58.670Z,1.63
2019-01-29T02:12:32.592Z,5.43
2019-01-29T02:15:07.279Z,8.70
2019-01-29T02:17:41.176Z,3.50
2019-01-29T02:20:15.308Z,4.37
2019-01-29T02:22:49.519Z,2.67
2019-01-29T02:25:26.144Z,2.33
2019-01-29T02:28:06.572Z,3.23
2019-01-29T02:30:41.167Z,1.90
2019-01-29T02:33:15.280Z,4.93
2019-01-29T02:35:55.930Z,8.30
2019-01-29T02:38:30.832Z,3.17
2019-01-29T02:41:04.396Z,3.07
2019-01-29T02:43:38.694Z,2.43
2019-01-29T02:46:12.485Z,1.20
2019-01-29T02:48:46.706Z,1.63
2019-01-29T02:51:23.007Z,2.23
2019-01-29T02:53:57.624Z,2.17
2019-01-29T02:56:31.311Z,2.23
2019-01-29T02:59:05.475Z,1.67
2019-01-29T03:01:39.156Z,2.90
2019-01-29T03:04:16.158Z,2.70
2019-01-29T03:06:49.828Z,1.80
2019-01-29T03:09:23.604Z,2.33
2019-01-29T03:11:57.325Z,3.53
2019-01-29T03:14:31.935Z,2.77
2019-01-29T03:17:05.895Z,3.23
2019-01-29T03:19:40.019Z,4.43
2019-01-29T03:22:13.642Z,3.43
2019-01-29T03:24:47.722Z,2.60
2019-01-29T03:27:21.263Z,3.30
2019-01-29T03:29:55.285Z,4.47
2019-01-29T03:32:28.940Z,6.40
2019-01-29T03:35:02.925Z,3.67
2019-01-29T03:37:36.477Z,3.17
2019-01-29T03:40:12.923Z,6.97
2019-01-29T03:42:47.204Z,1.50
2019-01-29T03:45:21.003Z,3.30
2019-01-29T03:47:55.058Z,2.20
2019-01-29T03:50:31.363Z,3.63
2019-01-29T03:53:04.908Z,27.90
2019-01-29T03:55:38.775Z,24.03
2019-01-29T03:58:12.982Z,7.50
2019-01-29T04:00:47.939Z,14.03
2019-01-29T04:03:21.481Z,28.07
2019-01-29T04:05:58.109Z,10.93
2019-01-29T04:08:31.735Z,18.33
2019-01-29T04:11:05.936Z,11.00
2019-01-29T04:13:46.719Z,6.90
2019-01-29T04:16:20.771Z,10.97
2019-01-29T04:18:54.503Z,9.13
2019-01-29T04:21:28.685Z,16.47
2019-01-29T04:24:02.679Z,9.00
2019-01-29T04:26:36.763Z,5.60
2019-01-29T04:29:10.301Z,4.90
2019-01-29T04:31:44.886Z,11.43
2019-01-29T04:34:18.616Z,7.43
2019-01-29T04:36:52.313Z,11.53
2019-01-29T04:39:26.476Z,6.03
2019-01-29T04:42:00.477Z,17.90
2019-01-29T04:44:34.112Z,4.80
2019-01-29T04:47:08.108Z,5.43
2019-01-29T04:49:41.851Z,9.10
2019-01-29T04:52:15.917Z,17.53
2019-01-29T04:54:49.532Z,13.63
2019-01-29T04:57:23.563Z,21.43
2019-01-29T04:59:57.096Z,28.90
2019-01-29T05:02:31.525Z,24.07
2019-01-29T05:05:05.849Z,7.63
2019-01-29T05:07:42.409Z,14.67
2019-01-29T05:10:16.390Z,22.20
2019-01-29T05:12:51.701Z,24.27
2019-01-29T05:15:25.614Z,19.60
2019-01-29T05:18:00.639Z,6.07
2019-01-29T05:20:38.229Z,22.83
2019-01-29T05:23:12.424Z,33.93
2019-01-29T05:25:46.255Z,22.93
2019-01-29T05:28:20.350Z,28.13
2019-01-29T05:30:58.349Z,15.63
2019-01-29T05:33:32.389Z,31.40
2019-01-29T05:36:15.137Z,27.73
2019-01-29T05:38:49.092Z,30.13
2019-01-29T05:41:24.563Z,32.17
2019-01-29T05:43:59.042Z,49.70
2019-01-29T05:46:32.630Z,41.70
2019-01-29T05:49:07.204Z,34.70
2019-01-29T05:51:41.074Z,50.83
2019-01-29T05:54:16.382Z,59.83
2019-01-29T05:56:50.479Z,69.60
2019-01-29T05:59:24.457Z,42.13
2019-01-29T06:01:59.272Z,40.13
2019-01-29T06:04:33.170Z,46.33
2019-01-29T06:07:07.217Z,74.17
2019-01-29T06:09:49.874Z,48.00
2019-01-29T06:12:24.146Z,51.00
2019-01-29T06:14:58.091Z,40.87
2019-01-29T06:17:31.878Z,67.07
2019-01-29T06:20:07.043Z,79.40
2019-01-29T06:22:42.023Z,52.90
2019-01-29T06:25:16.590Z,51.03
2019-01-29T06:27:50.583Z,36.30
2019-01-29T06:30:25.390Z,35.73
2019-01-29T06:32:59.421Z,55.77
2019-01-29T06:35:34.700Z,37.83
2019-01-29T06:38:08.671Z,31.13
2019-01-29T06:40:43.143Z,57.37
2019-01-29T06:43:18.798Z,65.13
2019-01-29T06:45:53.858Z,48.33
2019-01-29T06:48:27.991Z,58.40
2019-01-29T06:51:04.122Z,58.07
2019-01-29T06:53:38.043Z,38.67
2019-01-29T06:56:16.950Z,24.40
2019-01-29T06:58:52.903Z,14.57
2019-01-29T07:01:27.185Z,12.50
2019-01-29T07:04:02.963Z,13.47
2019-01-29T07:06:38.129Z,17.00
2019-01-29T07:09:13.006Z,13.97
2019-01-29T07:11:59.487Z,10.60
2019-01-29T07:14:33.221Z,13.67
2019-01-29T07:17:17.040Z,9.17
2019-01-29T07:19:54.584Z,11.80
2019-01-29T07:22:27.204Z,14.53
2019-01-29T07:25:01.784Z,16.63
2019-01-29T07:27:36.558Z,14.57
2019-01-29T07:30:14.105Z,15.40
2019-01-29T07:32:48.596Z,19.77
2019-01-29T07:35:22.812Z,16.47
2019-01-29T07:37:58.508Z,15.90
2019-01-29T07:40:31.496Z,15.23
2019-01-29T07:43:11.955Z,16.57
2019-01-29T07:45:46.756Z,21.17
2019-01-29T07:48:21.728Z,24.00
2019-01-29T07:51:04.045Z,27.50
2019-01-29T07:53:38.712Z,26.13
2019-01-29T07:56:14.166Z,56.47
2019-01-29T07:58:49.367Z,52.13
2019-01-29T08:01:23.700Z,43.13
2019-01-29T08:03:58.217Z,56.60
2019-01-29T08:06:34.277Z,53.00
2019-01-29T08:09:17.942Z,87.93
2019-01-29T08:11:58.441Z,98.77
2019-01-29T08:14:33.391Z,66.67
2019-01-29T08:17:08.002Z,75.67
2019-01-29T08:19:43.005Z,84.80
2019-01-29T08:22:17.067Z,78.37
2019-01-29T08:25:01.218Z,98.60
2019-01-29T08:27:31.823Z,80.87
2019-01-29T08:30:06.936Z,64.70
2019-01-29T08:32:42.101Z,109.00
2019-01-29T08:35:18.752Z,76.40
2019-01-29T08:37:53.695Z,39.50
2019-01-29T08:40:28.736Z,75.60
2019-01-29T08:43:03.169Z,76.00
2019-01-29T08:45:38.223Z,85.30
2019-01-29T08:48:14.416Z,90.20
2019-01-29T08:50:49.578Z,60.07
2019-01-29T08:53:23.801Z,64.43
2019-01-29T08:55:58.901Z,49.23
2019-01-29T08:58:32.964Z,62.07
2019-01-29T09:01:08.771Z,60.30
2019-01-29T09:03:43.114Z,48.40
2019-01-29T09:06:18.815Z,73.60
2019-01-29T09:08:53.921Z,37.77
2019-01-29T09:11:28.308Z,79.23
2019-01-29T09:14:06.402Z,29.03
2019-01-29T09:16:41.380Z,42.23
2019-01-29T09:19:16.857Z,63.87
2019-01-29T09:21:51.720Z,55.23
2019-01-29T09:24:28.417Z,51.10
2019-01-29T09:27:03.493Z,46.17
2019-01-29T09:29:38.922Z,38.37
2019-01-29T09:32:13.455Z,61.13
2019-01-29T09:34:49.888Z,51.77
2019-01-29T09:37:27.994Z,27.87
2019-01-29T09:40:04.876Z,29.33
2019-01-29T09:42:40.011Z,35.17
2019-01-29T09:45:17.027Z,41.63
2019-01-29T09:47:52.354Z,28.03
2019-01-29T09:50:26.707Z,59.97
2019-01-29T09:53:01.901Z,35.07
2019-01-29T09:55:35.975Z,22.93
2019-01-29T09:58:10.601Z,43.47
2019-01-29T10:00:46.056Z,41.73
2019-01-29T10:03:22.431Z,21.30
2019-01-29T10:05:57.393Z,37.03
2019-01-29T10:08:33.620Z,34.93
2019-01-29T10:11:10.809Z,67.40
2019-01-29T10:13:46.197Z,63.70
2019-01-29T10:16:20.806Z,55.50
2019-01-29T10:18:55.958Z,53.83
2019-01-29T10:21:31.214Z,33.67
2019-01-29T10:24:05.954Z,14.97
2019-01-29T10:26:44.656Z,28.93
2019-01-29T10:29:21.035Z,20.67
2019-01-29T10:31:57.552Z,18.30
2019-01-29T10:34:33.198Z,46.87
2019-01-29T10:37:10.507Z,32.17
2019-01-29T10:39:45.775Z,29.83
2019-01-29T10:42:20.091Z,39.77
2019-01-29T10:44:53.701Z,29.00
2019-01-29T10:47:29.008Z,42.37
2019-01-29T10:50:04.273Z,45.97
2019-01-29T10:52:38.658Z,20.77
2019-01-29T10:55:15.014Z,33.27
2019-01-29T10:57:50.838Z,30.67
2019-01-29T11:00:33.064Z,9.60
2019-01-29T11:03:14.378Z,14.97
2019-01-29T11:05:49.737Z,21.90
2019-01-29T11:08:24.154Z,15.43
2019-01-29T11:10:58.527Z,16.57
2019-01-29T11:13:32.471Z,19.53
2019-01-29T11:16:07.317Z,26.13
2019-01-29T11:18:43.254Z,16.63
2019-01-29T11:21:20.616Z,19.20
2019-01-29T11:23:56.973Z,10.03
2019-01-29T11:26:32.961Z,35.73
2019-01-29T11:29:09.078Z,14.60
2019-01-29T11:31:44.499Z,9.27
2019-01-29T11:34:20.075Z,4.30
2019-01-29T11:36:54.953Z,30.43
2019-01-29T11:39:29.427Z,15.10
2019-01-29T11:42:05.003Z,5.73
2019-01-29T11:44:39.351Z,24.17
2019-01-29T11:47:14.105Z,9.07
2019-01-29T11:49:50.717Z,25.10
2019-01-29T11:52:25.851Z,14.53
2019-01-29T11:55:01.123Z,16.83
2019-01-29T11:57:35.554Z,16.67
2019-01-29T12:00:13.830Z,12.80
2019-01-29T12:02:48.425Z,32.13
2019-01-29T12:05:22.793Z,36.17
2019-01-29T12:07:59.153Z,30.67
2019-01-29T12:10:35.435Z,24.47
2019-01-29T12:13:11.508Z,30.87
2019-01-29T12:15:48.209Z,23.70
2019-01-29T12:18:22.885Z,20.40
2019-01-29T12:20:58.829Z,15.77
2019-01-29T12:23:34.511Z,14.40
2019-01-29T12:26:18.354Z,19.00
2019-01-29T12:28:53.423Z,21.53
2019-01-29T12:31:27.373Z,41.13
2019-01-29T12:34:01.439Z,34.33
2019-01-29T12:36:37.921Z,22.77
2019-01-29T12:39:12.396Z,14.87
2019-01-29T12:41:46.676Z,48.53
2019-01-29T12:44:20.157Z,24.70
2019-01-29T12:46:55.851Z,37.00
2019-01-29T12:49:31.990Z,50.07
2019-01-29T12:52:20.776Z,29.37
2019-01-29T12:54:55.731Z,35.53
2019-01-29T12:57:30.545Z,10.47
2019-01-29T13:00:08.233Z,14.10
2019-01-29T13:02:45.220Z,14.47
2019-01-29T13:05:21.041Z,11.63
2019-01-29T13:07:56.348Z,22.60
2019-01-29T13:10:35.385Z,11.70
2019-01-29T13:13:10.328Z,23.53
2019-01-29T13:15:45.053Z,9.60
2019-01-29T13:18:20.321Z,5.30
2019-01-29T13:20:55.397Z,28.83
2019-01-29T13:23:33.219Z,10.73
2019-01-29T13:26:08.258Z,53.63
2019-01-29T13:28:43.886Z,22.43
2019-01-29T13:31:19.407Z,19.87
2019-01-29T13:33:54.780Z,26.83
2019-01-29T13:36:30.199Z,26.07
2019-01-29T13:39:07.585Z,41.27
2019-01-29T13:41:42.856Z,15.77
2019-01-29T13:44:17.347Z,14.63
2019-01-29T13:46:52.250Z,11.70
2019-01-29T13:49:28.044Z,39.50
2019-01-29T13:52:03.257Z,20.87
2019-01-29T13:54:38.209Z,29.83
2019-01-29T13:57:13.381Z,12.30
2019-01-29T13:59:49.376Z,16.57
2019-01-29T14:02:24.395Z,18.87
2019-01-29T14:04:58.406Z,15.73
2019-01-29T14:07:33.428Z,12.00
2019-01-29T14:10:08.535Z,13.77
2019-01-29T14:12:42.787Z,13.93
2019-01-29T14:15:41.911Z,13.50
2019-01-29T14:18:17.584Z,13.80
2019-01-29T14:20:52.069Z,17.07
2019-01-29T14:23:27.197Z,19.20
2019-01-29T14:26:04.180Z,9.43
2019-01-29T14:28:38.764Z,11.27
2019-01-29T14:31:12.746Z,9.87
2019-01-29T14:33:48.742Z,11.57
2019-01-29T14:36:23.266Z,14.67
2019-01-29T14:39:21.052Z,14.47
2019-01-29T14:41:55.982Z,13.57
2019-01-29T14:44:39.059Z,11.30
